sensor_id;sensor_type;location;lat;lon;timestamp;pressure;altitude;pressure_sealevel;temperature;humidity
23635;BME280;11994;51.038;16.974;2022-09-21T00:01:18;100720.46;;;9.93;87.92
23635;BME280;11994;51.038;16.974;2022-09-21T00:03:54;100727.88;;;9.92;87.95
23635;BME280;11994;51.038;16.974;2022-09-21T00:06:22;100729.66;;;9.90;88.01
23635;BME280;11994;51.038;16.974;2022-09-21T00:08:49;100724.42;;;9.89;88.07
23635;BME280;11994;51.038;16.974;2022-09-21T00:11:25;100724.90;;;9.87;88.29
23635;BME280;11994;51.038;16.974;2022-09-21T00:13:57;100722.28;;;9.87;88.35
23635;BME280;11994;51.038;16.974;2022-09-21T00:16:27;100720.09;;;9.86;88.46
23635;BME280;11994;51.038;16.974;2022-09-21T00:18:53;100717.88;;;9.89;88.47
23635;BME280;11994;51.038;16.974;2022-09-21T00:21:19;100726.14;;;9.91;88.46
23635;BME280;11994;51.038;16.974;2022-09-21T00:23:46;100719.63;;;9.90;88.39
23635;BME280;11994;51.038;16.974;2022-09-21T00:26:19;100720.55;;;9.86;88.37
23635;BME280;11994;51.038;16.974;2022-09-21T00:28:46;100725.81;;;9.83;88.31
23635;BME280;11994;51.038;16.974;2022-09-21T00:31:15;100727.59;;;9.81;88.42
23635;BME280;11994;51.038;16.974;2022-09-21T00:33:43;100729.32;;;9.82;88.44
23635;BME280;11994;51.038;16.974;2022-09-21T00:36:11;100735.03;;;9.80;88.46
23635;BME280;11994;51.038;16.974;2022-09-21T00:38:39;100731.13;;;9.77;88.50
23635;BME280;11994;51.038;16.974;2022-09-21T00:41:06;100734.64;;;9.74;88.67
23635;BME280;11994;51.038;16.974;2022-09-21T00:43:44;100739.89;;;9.74;88.75
23635;BME280;11994;51.038;16.974;2022-09-21T00:46:26;100743.80;;;9.76;88.77
23635;BME280;11994;51.038;16.974;2022-09-21T00:48:52;100737.27;;;9.74;88.86
23635;BME280;11994;51.038;16.974;2022-09-21T00:51:19;100743.40;;;9.73;88.97
23635;BME280;11994;51.038;16.974;2022-09-21T00:53:46;100740.37;;;9.71;88.99
23635;BME280;11994;51.038;16.974;2022-09-21T00:56:16;100739.48;;;9.72;89.09
23635;BME280;11994;51.038;16.974;2022-09-21T00:58:45;100750.78;;;9.75;89.06
23635;BME280;11994;51.038;16.974;2022-09-21T01:01:13;100754.30;;;9.74;89.05
23635;BME280;11994;51.038;16.974;2022-09-21T01:03:44;100750.41;;;9.73;89.09
23635;BME280;11994;51.038;16.974;2022-09-21T01:06:12;100752.62;;;9.70;89.16
23635;BME280;11994;51.038;16.974;2022-09-21T01:08:40;100757.87;;;9.69;89.20
23635;BME280;11994;51.038;16.974;2022-09-21T01:17:05;100756.63;;;9.61;89.33
23635;BME280;11994;51.038;16.974;2022-09-21T01:28:56;100765.39;;;9.59;89.52
23635;BME280;11994;51.038;16.974;2022-09-21T01:31:40;100756.22;;;9.59;89.65
23635;BME280;11994;51.038;16.974;2022-09-21T01:34:15;100761.94;;;9.55;89.61
23635;BME280;11994;51.038;16.974;2022-09-21T01:36:47;100759.75;;;9.55;89.66
23635;BME280;11994;51.038;16.974;2022-09-21T01:39:15;100768.91;;;9.56;89.59
23635;BME280;11994;51.038;16.974;2022-09-21T01:41:46;100768.06;;;9.56;89.54
23635;BME280;11994;51.038;16.974;2022-09-21T01:44:17;100767.65;;;9.53;89.56
23635;BME280;11994;51.038;16.974;2022-09-21T01:46:45;100768.97;;;9.52;89.59
23635;BME280;11994;51.038;16.974;2022-09-21T01:49:15;100780.34;;;9.49;89.56
23635;BME280;11994;51.038;16.974;2022-09-21T01:51:52;100774.26;;;9.47;89.69
23635;BME280;11994;51.038;16.974;2022-09-21T01:54:34;100779.03;;;9.49;89.70
23635;BME280;11994;51.038;16.974;2022-09-21T01:57:27;100772.06;;;9.48;89.77
23635;BME280;11994;51.038;16.974;2022-09-21T01:59:56;100769.92;;;9.45;89.80
23635;BME280;11994;51.038;16.974;2022-09-21T02:02:42;100778.67;;;9.42;89.89
23635;BME280;11994;51.038;16.974;2022-09-21T02:05:24;100773.02;;;9.40;89.90
23635;BME280;11994;51.038;16.974;2022-09-21T02:07:52;100777.84;;;9.36;89.92
23635;BME280;11994;51.038;16.974;2022-09-21T02:10:43;100782.67;;;9.33;90.00
23635;BME280;11994;51.038;16.974;2022-09-21T02:13:03;100781.41;;;9.30;90.04
23635;BME280;11994;51.038;16.974;2022-09-21T02:18:42;100785.81;;;9.25;90.07
23635;BME280;11994;51.038;16.974;2022-09-21T02:21:31;100785.34;;;9.26;90.22
23635;BME280;11994;51.038;16.974;2022-09-21T02:24:13;100781.42;;;9.26;90.44
23635;BME280;11994;51.038;16.974;2022-09-21T02:26:47;100790.58;;;9.26;90.58
23635;BME280;11994;51.038;16.974;2022-09-21T02:32:22;100788.43;;;9.24;90.54
23635;BME280;11994;51.038;16.974;2022-09-21T02:35:00;100789.28;;;9.26;90.61
23635;BME280;11994;51.038;16.974;2022-09-21T02:40:20;100793.23;;;9.24;90.68
23635;BME280;11994;51.038;16.974;2022-09-21T02:42:52;100798.91;;;9.24;90.70
23635;BME280;11994;51.038;16.974;2022-09-21T02:45:23;100797.59;;;9.24;90.70
23635;BME280;11994;51.038;16.974;2022-09-21T02:47:57;100795.44;;;9.22;90.62
23635;BME280;11994;51.038;16.974;2022-09-21T02:50:52;100800.64;;;9.23;90.79
23635;BME280;11994;51.038;16.974;2022-09-21T02:53:22;100801.95;;;9.23;90.72
23635;BME280;11994;51.038;16.974;2022-09-21T02:55:50;100806.80;;;9.19;90.77
23635;BME280;11994;51.038;16.974;2022-09-21T02:58:19;100804.19;;;9.18;90.92
23635;BME280;11994;51.038;16.974;2022-09-21T03:00:46;100805.97;;;9.13;90.82
23635;BME280;11994;51.038;16.974;2022-09-21T03:03:20;100811.20;;;9.13;90.89
23635;BME280;11994;51.038;16.974;2022-09-21T03:05:49;100809.02;;;9.12;90.92
23635;BME280;11994;51.038;16.974;2022-09-21T03:08:18;100816.45;;;9.10;90.94
23635;BME280;11994;51.038;16.974;2022-09-21T03:10:45;100820.84;;;9.11;91.04
23635;BME280;11994;51.038;16.974;2022-09-21T03:13:13;100820.37;;;9.13;91.07
23635;BME280;11994;51.038;16.974;2022-09-21T03:15:40;100828.65;;;9.14;91.06
23635;BME280;11994;51.038;16.974;2022-09-21T03:18:08;100822.52;;;9.15;91.19
23635;BME280;11994;51.038;16.974;2022-09-21T03:20:36;100818.59;;;9.15;91.18
23635;BME280;11994;51.038;16.974;2022-09-21T03:23:03;100818.59;;;9.16;91.20
23635;BME280;11994;51.038;16.974;2022-09-21T03:25:29;100824.66;;;9.21;91.25
23635;BME280;11994;51.038;16.974;2022-09-21T03:27:56;100825.97;;;9.23;91.25
23635;BME280;11994;51.038;16.974;2022-09-21T03:30:24;100821.58;;;9.25;91.42
23635;BME280;11994;51.038;16.974;2022-09-21T03:32:54;100818.50;;;9.27;91.39
23635;BME280;11994;51.038;16.974;2022-09-21T03:35:22;100824.19;;;9.28;91.40
23635;BME280;11994;51.038;16.974;2022-09-21T03:37:51;100825.03;;;9.30;91.45
23635;BME280;11994;51.038;16.974;2022-09-21T03:40:17;100825.45;;;9.31;91.51
23635;BME280;11994;51.038;16.974;2022-09-21T03:42:44;100825.91;;;9.30;91.58
23635;BME280;11994;51.038;16.974;2022-09-21T03:45:11;100829.38;;;9.31;91.64
23635;BME280;11994;51.038;16.974;2022-09-21T03:47:38;100829.80;;;9.33;91.78
23635;BME280;11994;51.038;16.974;2022-09-21T03:50:06;100827.17;;;9.35;91.69
23635;BME280;11994;51.038;16.974;2022-09-21T03:52:33;100824.09;;;9.37;91.77
23635;BME280;11994;51.038;16.974;2022-09-21T03:55:00;100838.02;;;9.40;91.87
23635;BME280;11994;51.038;16.974;2022-09-21T03:57:28;100828.43;;;9.41;91.95
23635;BME280;11994;51.038;16.974;2022-09-21T03:59:54;100841.52;;;9.42;92.02
23635;BME280;11994;51.038;16.974;2022-09-21T04:02:20;100841.05;;;9.44;91.98
23635;BME280;11994;51.038;16.974;2022-09-21T04:04:46;100842.78;;;9.47;92.01
23635;BME280;11994;51.038;16.974;2022-09-21T04:07:12;100837.53;;;9.48;92.08
23635;BME280;11994;51.038;16.974;2022-09-21T04:09:39;100845.39;;;9.48;92.15
23635;BME280;11994;51.038;16.974;2022-09-21T04:12:06;100848.44;;;9.49;92.10
23635;BME280;11994;51.038;16.974;2022-09-21T04:14:32;100845.35;;;9.50;92.13
23635;BME280;11994;51.038;16.974;2022-09-21T04:16:58;100850.16;;;9.53;92.18
23635;BME280;11994;51.038;16.974;2022-09-21T04:19:24;100849.69;;;9.55;92.25
23635;BME280;11994;51.038;16.974;2022-09-21T04:21:50;100853.19;;;9.56;92.28
23635;BME280;11994;51.038;16.974;2022-09-21T04:24:17;100849.69;;;9.57;92.35
23635;BME280;11994;51.038;16.974;2022-09-21T04:26:45;100855.77;;;9.59;92.31
23635;BME280;11994;51.038;16.974;2022-09-21T04:29:12;100856.61;;;9.61;92.34
23635;BME280;11994;51.038;16.974;2022-09-21T04:31:39;100853.98;;;9.61;92.43
23635;BME280;11994;51.038;16.974;2022-09-21T04:34:05;100851.41;;;9.58;92.34
23635;BME280;11994;51.038;16.974;2022-09-21T04:36:31;100854.03;;;9.58;92.32
23635;BME280;11994;51.038;16.974;2022-09-21T04:39:00;100864.05;;;9.58;92.30
23635;BME280;11994;51.038;16.974;2022-09-21T04:41:26;100857.54;;;9.57;92.43
23635;BME280;11994;51.038;16.974;2022-09-21T04:43:52;100856.66;;;9.58;92.54
23635;BME280;11994;51.038;16.974;2022-09-21T04:46:19;100863.21;;;9.55;92.44
23635;BME280;11994;51.038;16.974;2022-09-21T04:48:46;100864.52;;;9.55;92.46
23635;BME280;11994;51.038;16.974;2022-09-21T04:51:13;100866.29;;;9.56;92.52
23635;BME280;11994;51.038;16.974;2022-09-21T04:53:41;100862.31;;;9.59;92.63
23635;BME280;11994;51.038;16.974;2022-09-21T04:56:09;100867.98;;;9.58;92.60
23635;BME280;11994;51.038;16.974;2022-09-21T04:58:39;100861.43;;;9.58;92.59
23635;BME280;11994;51.038;16.974;2022-09-21T05:01:05;100861.47;;;9.57;92.52
23635;BME280;11994;51.038;16.974;2022-09-21T05:03:32;100863.63;;;9.59;92.57
23635;BME280;11994;51.038;16.974;2022-09-21T05:05:58;100861.00;;;9.60;92.61
23635;BME280;11994;51.038;16.974;2022-09-21T05:08:25;100860.58;;;9.58;92.63
23635;BME280;11994;51.038;16.974;2022-09-21T05:11:12;100871.95;;;9.57;92.67
23635;BME280;11994;51.038;16.974;2022-09-21T05:13:41;100868.02;;;9.57;92.76
23635;BME280;11994;51.038;16.974;2022-09-21T05:16:08;100865.81;;;9.59;92.78
23635;BME280;11994;51.038;16.974;2022-09-21T05:18:34;100866.66;;;9.61;92.86
23635;BME280;11994;51.038;16.974;2022-09-21T05:21:01;100879.75;;;9.63;92.87
23635;BME280;11994;51.038;16.974;2022-09-21T05:23:29;100886.30;;;9.63;92.92
23635;BME280;11994;51.038;16.974;2022-09-21T05:25:57;100883.67;;;9.64;93.01
23635;BME280;11994;51.038;16.974;2022-09-21T05:28:24;100883.22;;;9.65;92.92
23635;BME280;11994;51.038;16.974;2022-09-21T05:30:56;100881.48;;;9.65;93.04
23635;BME280;11994;51.038;16.974;2022-09-21T05:33:41;100879.70;;;9.69;93.17
23635;BME280;11994;51.038;16.974;2022-09-21T05:39:11;100884.10;;;9.64;93.11
23635;BME280;11994;51.038;16.974;2022-09-21T05:41:38;100890.23;;;9.63;93.22
23635;BME280;11994;51.038;16.974;2022-09-21T05:44:05;100903.75;;;9.65;93.44
23635;BME280;11994;51.038;16.974;2022-09-21T05:46:57;100895.42;;;9.66;93.44
23635;BME280;11994;51.038;16.974;2022-09-21T05:49:58;100901.13;;;9.64;93.41
23635;BME280;11994;51.038;16.974;2022-09-21T05:53:42;100905.48;;;9.65;93.65
23635;BME280;11994;51.038;16.974;2022-09-21T06:04:14;100907.63;;;9.70;94.12
23635;BME280;11994;51.038;16.974;2022-09-21T06:06:41;100908.47;;;9.72;94.22
23635;BME280;11994;51.038;16.974;2022-09-21T06:09:07;100915.01;;;9.76;94.19
23635;BME280;11994;51.038;16.974;2022-09-21T06:11:33;100913.23;;;9.77;94.30
23635;BME280;11994;51.038;16.974;2022-09-21T06:14:00;100915.42;;;9.79;94.34
23635;BME280;11994;51.038;16.974;2022-09-21T06:16:35;100920.19;;;9.82;94.35
23635;BME280;11994;51.038;16.974;2022-09-21T06:19:03;100926.27;;;9.86;94.35
23635;BME280;11994;51.038;16.974;2022-09-21T06:21:29;100915.75;;;9.89;94.44
23635;BME280;11994;51.038;16.974;2022-09-21T06:23:55;100927.11;;;9.91;94.43
23635;BME280;11994;51.038;16.974;2022-09-21T06:26:21;100920.48;;;9.98;94.83
23635;BME280;11994;51.038;16.974;2022-09-21T06:28:47;100916.04;;;10.03;94.79
23635;BME280;11994;51.038;16.974;2022-09-21T06:31:13;100920.42;;;10.06;94.53
23635;BME280;11994;51.038;16.974;2022-09-21T06:33:39;100925.23;;;10.08;94.56
23635;BME280;11994;51.038;16.974;2022-09-21T06:36:05;100927.81;;;10.09;94.56
23635;BME280;11994;51.038;16.974;2022-09-21T06:38:31;100926.08;;;10.08;94.52
23635;BME280;11994;51.038;16.974;2022-09-21T06:41:03;100924.77;;;10.10;94.50
23635;BME280;11994;51.038;16.974;2022-09-21T06:43:30;100927.43;;;10.07;94.37
23635;BME280;11994;51.038;16.974;2022-09-21T06:45:58;100932.22;;;10.06;94.23
23635;BME280;11994;51.038;16.974;2022-09-21T06:48:26;100934.39;;;10.03;94.21
23635;BME280;11994;51.038;16.974;2022-09-21T06:50:56;100935.28;;;10.01;94.36
23635;BME280;11994;51.038;16.974;2022-09-21T06:53:27;100936.59;;;10.01;94.16
23635;BME280;11994;51.038;16.974;2022-09-21T06:55:59;100944.05;;;10.00;94.19
23635;BME280;11994;51.038;16.974;2022-09-21T06:58:30;100948.81;;;10.03;94.59
23635;BME280;11994;51.038;16.974;2022-09-21T07:00:58;100944.88;;;10.03;94.38
23635;BME280;11994;51.038;16.974;2022-09-21T07:03:24;100944.03;;;10.03;94.48
23635;BME280;11994;51.038;16.974;2022-09-21T07:05:49;100954.94;;;10.02;94.39
23635;BME280;11994;51.038;16.974;2022-09-21T07:08:15;100946.66;;;10.00;94.43
23635;BME280;11994;51.038;16.974;2022-09-21T07:10:41;100956.25;;;10.02;94.57
23635;BME280;11994;51.038;16.974;2022-09-21T07:13:07;100961.06;;;10.03;94.60
23635;BME280;11994;51.038;16.974;2022-09-21T07:15:34;100952.78;;;10.02;94.78
23635;BME280;11994;51.038;16.974;2022-09-21T07:17:59;100950.59;;;10.01;94.71
23635;BME280;11994;51.038;16.974;2022-09-21T07:20:25;100963.69;;;10.03;94.83
23635;BME280;11994;51.038;16.974;2022-09-21T07:22:51;100969.80;;;10.06;94.83
23635;BME280;11994;51.038;16.974;2022-09-21T07:25:17;100962.83;;;10.07;94.79
23635;BME280;11994;51.038;16.974;2022-09-21T07:27:43;100964.98;;;10.09;94.90
23635;BME280;11994;51.038;16.974;2022-09-21T07:30:09;100953.19;;;10.06;94.83
23635;BME280;11994;51.038;16.974;2022-09-21T07:32:36;100960.21;;;10.04;94.83
23635;BME280;11994;51.038;16.974;2022-09-21T07:35:02;100968.96;;;10.04;94.98
23635;BME280;11994;51.038;16.974;2022-09-21T07:37:30;100974.58;;;10.10;95.26
23635;BME280;11994;51.038;16.974;2022-09-21T07:39:56;100959.69;;;10.12;95.42
23635;BME280;11994;51.038;16.974;2022-09-21T07:42:22;100961.83;;;10.17;95.62
23635;BME280;11994;51.038;16.974;2022-09-21T07:44:49;100953.53;;;10.17;95.55
23635;BME280;11994;51.038;16.974;2022-09-21T07:47:15;100963.13;;;10.20;95.65
23635;BME280;11994;51.038;16.974;2022-09-21T07:49:41;100964.80;;;10.25;95.83
23635;BME280;11994;51.038;16.974;2022-09-21T07:52:07;100971.29;;;10.33;96.04
23635;BME280;11994;51.038;16.974;2022-09-21T07:54:35;100969.91;;;10.40;96.39
23635;BME280;11994;51.038;16.974;2022-09-21T07:57:01;100973.34;;;10.47;96.35
23635;BME280;11994;51.038;16.974;2022-09-21T07:59:35;100968.46;;;10.52;96.45
23635;BME280;11994;51.038;16.974;2022-09-21T08:02:01;100964.89;;;10.58;96.39
23635;BME280;11994;51.038;16.974;2022-09-21T08:04:27;100963.05;;;10.67;96.81
23635;BME280;11994;51.038;16.974;2022-09-21T08:06:53;100960.30;;;10.76;96.81
23635;BME280;11994;51.038;16.974;2022-09-21T08:09:18;100972.93;;;10.81;96.65
23635;BME280;11994;51.038;16.974;2022-09-21T08:11:44;100973.27;;;10.88;96.94
23635;BME280;11994;51.038;16.974;2022-09-21T08:14:11;100973.19;;;10.96;96.96
23635;BME280;11994;51.038;16.974;2022-09-21T08:16:39;100982.29;;;11.03;97.12
23635;BME280;11994;51.038;16.974;2022-09-21T08:19:05;100979.59;;;11.08;96.67
23635;BME280;11994;51.038;16.974;2022-09-21T08:21:31;100967.33;;;11.10;96.46
23635;BME280;11994;51.038;16.974;2022-09-21T08:23:57;100976.12;;;11.07;96.26
23635;BME280;11994;51.038;16.974;2022-09-21T08:26:23;100983.95;;;11.09;96.25
23635;BME280;11994;51.038;16.974;2022-09-21T08:28:51;100975.29;;;11.04;95.90
23635;BME280;11994;51.038;16.974;2022-09-21T08:31:19;100983.61;;;11.02;95.74
23635;BME280;11994;51.038;16.974;2022-09-21T08:33:48;100976.70;;;10.95;95.88
23635;BME280;11994;51.038;16.974;2022-09-21T08:36:16;100983.67;;;10.99;95.86
23635;BME280;11994;51.038;16.974;2022-09-21T08:38:42;100987.12;;;11.02;96.07
23635;BME280;11994;51.038;16.974;2022-09-21T08:46:32;100987.81;;;11.15;96.24
23635;BME280;11994;51.038;16.974;2022-09-21T08:49:18;100987.77;;;11.19;96.19
23635;BME280;11994;51.038;16.974;2022-09-21T08:51:52;100986.80;;;11.25;96.50
23635;BME280;11994;51.038;16.974;2022-09-21T08:54:37;100987.11;;;11.35;96.52
23635;BME280;11994;51.038;16.974;2022-09-21T08:57:13;100986.14;;;11.40;96.10
23635;BME280;11994;51.038;16.974;2022-09-21T08:59:40;100989.95;;;11.51;96.94
23635;BME280;11994;51.038;16.974;2022-09-21T09:08:18;100990.69;;;11.63;96.32
23635;BME280;11994;51.038;16.974;2022-09-21T09:19:43;100993.16;;;11.72;96.06
23635;BME280;11994;51.038;16.974;2022-09-21T09:22:14;100991.73;;;11.80;96.21
23635;BME280;11994;51.038;16.974;2022-09-21T09:24:49;100987.78;;;11.80;95.72
23635;BME280;11994;51.038;16.974;2022-09-21T09:27:20;100988.70;;;11.77;95.65
23635;BME280;11994;51.038;16.974;2022-09-21T09:30:00;100995.69;;;11.78;95.68
23635;BME280;11994;51.038;16.974;2022-09-21T09:32:38;100993.94;;;11.79;95.38
23635;BME280;11994;51.038;16.974;2022-09-21T09:35:37;100990.81;;;11.82;95.27
23635;BME280;11994;51.038;16.974;2022-09-21T09:38:21;100990.30;;;11.87;95.65
23635;BME280;11994;51.038;16.974;2022-09-21T09:44:06;100985.67;;;12.01;96.02
23635;BME280;11994;51.038;16.974;2022-09-21T09:52:17;100990.47;;;12.28;96.17
23635;BME280;11994;51.038;16.974;2022-09-21T09:54:43;100982.89;;;12.33;95.69
23635;BME280;11994;51.038;16.974;2022-09-21T09:57:09;100983.25;;;12.39;95.69
23635;BME280;11994;51.038;16.974;2022-09-21T09:59:49;100972.52;;;12.49;95.77
23635;BME280;11994;51.038;16.974;2022-09-21T10:07:39;100972.87;;;12.77;95.18
23635;BME280;11994;51.038;16.974;2022-09-21T10:10:31;100978.08;;;12.78;94.76
23635;BME280;11994;51.038;16.974;2022-09-21T10:21:40;100972.47;;;12.96;94.38
23635;BME280;11994;51.038;16.974;2022-09-21T10:24:18;100969.16;;;13.07;94.79
23635;BME280;11994;51.038;16.974;2022-09-21T10:26:49;100970.41;;;13.12;94.14
23635;BME280;11994;51.038;16.974;2022-09-21T10:37:34;100970.55;;;13.25;93.47
23635;BME280;11994;51.038;16.974;2022-09-21T10:40:22;100962.89;;;13.33;93.81
23635;BME280;11994;51.038;16.974;2022-09-21T10:42:49;100961.79;;;13.43;93.31
23635;BME280;11994;51.038;16.974;2022-09-21T10:45:19;100963.79;;;13.51;93.05
23635;BME280;11994;51.038;16.974;2022-09-21T10:48:12;100957.14;;;13.54;92.95
23635;BME280;11994;51.038;16.974;2022-09-21T10:50:43;100952.19;;;13.58;92.68
23635;BME280;11994;51.038;16.974;2022-09-21T10:53:28;100948.09;;;13.64;92.47
23635;BME280;11994;51.038;16.974;2022-09-21T10:58:31;100947.27;;;13.97;92.43
23635;BME280;11994;51.038;16.974;2022-09-21T11:01:12;100944.28;;;14.11;91.91
23635;BME280;11994;51.038;16.974;2022-09-21T11:04:07;100947.17;;;14.18;91.57
23635;BME280;11994;51.038;16.974;2022-09-21T11:06:44;100932.99;;;14.23;91.26
23635;BME280;11994;51.038;16.974;2022-09-21T11:09:28;100938.92;;;14.31;90.64
23635;BME280;11994;51.038;16.974;2022-09-21T11:12:10;100942.81;;;14.34;90.56
23635;BME280;11994;51.038;16.974;2022-09-21T11:14:52;100942.41;;;14.33;89.71
23635;BME280;11994;51.038;16.974;2022-09-21T11:31:00;100923.35;;;14.53;88.54
23635;BME280;11994;51.038;16.974;2022-09-21T11:44:49;100916.89;;;14.48;85.33
23635;BME280;11994;51.038;16.974;2022-09-21T11:56:25;100906.36;;;14.77;85.55
23635;BME280;11994;51.038;16.974;2022-09-21T12:05:38;100901.53;;;15.20;83.42
23635;BME280;11994;51.038;16.974;2022-09-21T12:14:08;100905.36;;;15.10;81.80
23635;BME280;11994;51.038;16.974;2022-09-21T12:19:44;100897.25;;;15.02;80.83
23635;BME280;11994;51.038;16.974;2022-09-21T12:22:26;100905.73;;;14.98;80.46
23635;BME280;11994;51.038;16.974;2022-09-21T12:25:19;100897.08;;;14.93;80.31
23635;BME280;11994;51.038;16.974;2022-09-21T12:28:13;100902.36;;;14.93;80.00
23635;BME280;11994;51.038;16.974;2022-09-21T12:31:03;100898.88;;;14.93;79.82
23635;BME280;11994;51.038;16.974;2022-09-21T12:33:44;100895.20;;;14.97;80.44
23635;BME280;11994;51.038;16.974;2022-09-21T12:36:33;100901.70;;;15.01;80.29
23635;BME280;11994;51.038;16.974;2022-09-21T12:38:58;100902.39;;;15.06;80.62
23635;BME280;11994;51.038;16.974;2022-09-21T12:41:46;100890.02;;;15.08;79.91
23635;BME280;11994;51.038;16.974;2022-09-21T12:44:23;100899.23;;;15.10;79.42
23635;BME280;11994;51.038;16.974;2022-09-21T12:47:09;100896.03;;;15.13;79.15
23635;BME280;11994;51.038;16.974;2022-09-21T12:49:47;100890.59;;;15.18;79.06
23635;BME280;11994;51.038;16.974;2022-09-21T12:52:20;100888.64;;;15.24;79.14
23635;BME280;11994;51.038;16.974;2022-09-21T13:00:42;100880.91;;;15.33;78.22
23635;BME280;11994;51.038;16.974;2022-09-21T13:05:52;100877.39;;;15.45;77.61
23635;BME280;11994;51.038;16.974;2022-09-21T13:08:27;100879.55;;;15.47;77.08
23635;BME280;11994;51.038;16.974;2022-09-21T13:11:00;100880.35;;;15.49;76.81
23635;BME280;11994;51.038;16.974;2022-09-21T13:13:49;100876.38;;;15.49;76.69
23635;BME280;11994;51.038;16.974;2022-09-21T13:16:31;100876.34;;;15.51;76.40
23635;BME280;11994;51.038;16.974;2022-09-21T13:19:01;100875.42;;;15.52;76.45
23635;BME280;11994;51.038;16.974;2022-09-21T13:21:30;100875.47;;;15.50;76.41
23635;BME280;11994;51.038;16.974;2022-09-21T13:24:02;100873.38;;;15.47;76.17
23635;BME280;11994;51.038;16.974;2022-09-21T13:29:23;100879.51;;;15.34;76.24
23635;BME280;11994;51.038;16.974;2022-09-21T13:31:59;100876.27;;;15.25;76.50
23635;BME280;11994;51.038;16.974;2022-09-21T13:34:36;100879.98;;;15.19;76.39
23635;BME280;11994;51.038;16.974;2022-09-21T13:37:27;100881.89;;;15.14;76.69
23635;BME280;11994;51.038;16.974;2022-09-21T13:47:50;100876.93;;;15.18;76.68
23635;BME280;11994;51.038;16.974;2022-09-21T13:50:31;100879.14;;;15.17;76.43
23635;BME280;11994;51.038;16.974;2022-09-21T13:53:05;100877.05;;;15.14;76.28
23635;BME280;11994;51.038;16.974;2022-09-21T13:55:50;100875.28;;;15.14;76.07
23635;BME280;11994;51.038;16.974;2022-09-21T13:58:27;100869.29;;;15.22;76.17
23635;BME280;11994;51.038;16.974;2022-09-21T14:01:04;100872.97;;;15.33;76.16
23635;BME280;11994;51.038;16.974;2022-09-21T14:03:44;100871.30;;;15.43;75.81
23635;BME280;11994;51.038;16.974;2022-09-21T14:06:27;100883.04;;;15.48;75.57
23635;BME280;11994;51.038;16.974;2022-09-21T14:09:00;100881.11;;;15.40;75.34
23635;BME280;11994;51.038;16.974;2022-09-21T14:11:37;100869.00;;;15.18;76.29
23635;BME280;11994;51.038;16.974;2022-09-21T14:16:56;100864.63;;;15.03;77.52
23635;BME280;11994;51.038;16.974;2022-09-21T14:19:57;100861.98;;;15.03;78.10
23635;BME280;11994;51.038;16.974;2022-09-21T14:24:45;100849.81;;;15.12;78.38
23635;BME280;11994;51.038;16.974;2022-09-21T14:30:13;100853.19;;;15.30;78.14
23635;BME280;11994;51.038;16.974;2022-09-21T14:35:25;100855.31;;;15.19;76.65
23635;BME280;11994;51.038;16.974;2022-09-21T14:37:55;100853.66;;;15.15;75.53
23635;BME280;11994;51.038;16.974;2022-09-21T14:40:35;100853.38;;;15.11;74.97
23635;BME280;11994;51.038;16.974;2022-09-21T14:43:00;100850.84;;;15.06;74.39
23635;BME280;11994;51.038;16.974;2022-09-21T14:46:40;100852.61;;;15.07;74.22
23635;BME280;11994;51.038;16.974;2022-09-21T15:00:23;100848.28;;;15.05;73.76
23635;BME280;11994;51.038;16.974;2022-09-21T15:06:10;100851.33;;;15.06;73.73
23635;BME280;11994;51.038;16.974;2022-09-21T15:12:43;100847.52;;;15.01;74.01
23635;BME280;11994;51.038;16.974;2022-09-21T15:18:19;100845.09;;;14.94;74.09
23635;BME280;11994;51.038;16.974;2022-09-21T15:21:00;100850.02;;;14.91;74.11
23635;BME280;11994;51.038;16.974;2022-09-21T15:23:36;100845.22;;;14.89;74.22
23635;BME280;11994;51.038;16.974;2022-09-21T15:26:02;100841.37;;;14.86;74.36
23635;BME280;11994;51.038;16.974;2022-09-21T15:28:33;100850.21;;;14.85;74.59
23635;BME280;11994;51.038;16.974;2022-09-21T15:31:00;100843.09;;;14.87;74.72
23635;BME280;11994;51.038;16.974;2022-09-21T15:33:26;100838.72;;;14.86;75.06
23635;BME280;11994;51.038;16.974;2022-09-21T15:35:52;100839.56;;;14.87;75.23
23635;BME280;11994;51.038;16.974;2022-09-21T15:38:30;100848.34;;;14.89;75.28
23635;BME280;11994;51.038;16.974;2022-09-21T15:40:58;100842.58;;;14.89;75.37
23635;BME280;11994;51.038;16.974;2022-09-21T15:43:24;100835.93;;;14.91;75.65
23635;BME280;11994;51.038;16.974;2022-09-21T15:46:02;100834.17;;;14.91;75.55
23635;BME280;11994;51.038;16.974;2022-09-21T15:48:34;100839.05;;;14.90;75.52
23635;BME280;11994;51.038;16.974;2022-09-21T15:54:01;100835.91;;;14.78;75.58
23635;BME280;11994;51.038;16.974;2022-09-21T15:56:27;100844.34;;;14.76;75.57
23635;BME280;11994;51.038;16.974;2022-09-21T15:59:01;100847.50;;;14.72;75.68
23635;BME280;11994;51.038;16.974;2022-09-21T16:01:30;100844.56;;;14.68;75.75
23635;BME280;11994;51.038;16.974;2022-09-21T16:04:05;100844.23;;;14.64;75.85
23635;BME280;11994;51.038;16.974;2022-09-21T16:06:37;100845.63;;;14.61;75.96
23635;BME280;11994;51.038;16.974;2022-09-21T16:09:27;100847.87;;;14.60;76.14
23635;BME280;11994;51.038;16.974;2022-09-21T16:11:55;100852.42;;;14.55;76.22
23635;BME280;11994;51.038;16.974;2022-09-21T16:14:22;100849.11;;;14.49;76.40
23635;BME280;11994;51.038;16.974;2022-09-21T16:27:57;100860.13;;;14.16;75.76
23635;BME280;11994;51.038;16.974;2022-09-21T16:30:58;100869.54;;;14.10;74.98
23635;BME280;11994;51.038;16.974;2022-09-21T16:39:01;100861.30;;;13.89;74.41
23635;BME280;11994;51.038;16.974;2022-09-21T16:41:35;100871.64;;;13.80;74.35